sensor_id;sensor_type;location;lat;lon;timestamp;noise_LAeq;noise_LA_min;noise_LA_max;noise_LA01;noise_LA95
52872;Laerm;40124;52.198;9.902;2023-11-19T00:00:04;65.26;42.16;80.30;;
52872;Laerm;40124;52.198;9.902;2023-11-19T00:02:31;67.10;42.59;82.39;;
52872;Laerm;40124;52.198;9.902;2023-11-19T00:04:57;64.34;44.80;81.98;;
52872;Laerm;40124;52.198;9.902;2023-11-19T00:07:23;65.28;44.65;85.78;;
52872;Laerm;40124;52.198;9.902;2023-11-19T00:09:48;62.25;43.19;79.29;;
52872;Laerm;40124;52.198;9.902;2023-11-19T00:12:14;47.01;42.59;54.71;;
52872;Laerm;40124;52.198;9.902;2023-11-19T00:14:39;64.26;41.61;80.94;;
52872;Laerm;40124;52.198;9.902;2023-11-19T00:17:04;57.08;42.82;75.93;;
52872;Laerm;40124;52.198;9.902;2023-11-19T00:19:29;61.30;41.22;79.83;;
52872;Laerm;40124;52.198;9.902;2023-11-19T00:21:55;44.59;40.80;52.89;;
52872;Laerm;40124;52.198;9.902;2023-11-19T00:24:20;43.38;40.33;53.19;;
52872;Laerm;40124;52.198;9.902;2023-11-19T00:26:45;61.28;40.71;78.85;;
52872;Laerm;40124;52.198;9.902;2023-11-19T00:29:10;57.50;41.06;76.49;;
52872;Laerm;40124;52.198;9.902;2023-11-19T00:31:36;60.36;40.43;80.17;;
52872;Laerm;40124;52.198;9.902;2023-11-19T00:34:01;60.32;39.92;80.48;;
52872;Laerm;40124;52.198;9.902;2023-11-19T00:36:27;57.19;40.98;77.17;;
52872;Laerm;40124;52.198;9.902;2023-11-19T00:38:53;61.69;41.30;79.22;;
52872;Laerm;40124;52.198;9.902;2023-11-19T00:41:18;43.56;40.43;50.29;;
52872;Laerm;40124;52.198;9.902;2023-11-19T00:43:44;62.34;39.81;79.81;;
52872;Laerm;40124;52.198;9.902;2023-11-19T00:46:09;62.86;40.43;81.36;;
52872;Laerm;40124;52.198;9.902;2023-11-19T00:48:35;62.42;40.23;81.90;;
52872;Laerm;40124;52.198;9.902;2023-11-19T00:51:01;60.19;38.81;77.01;;
52872;Laerm;40124;52.198;9.902;2023-11-19T00:53:26;58.52;40.33;79.44;;
52872;Laerm;40124;52.198;9.902;2023-11-19T00:55:51;62.62;40.13;80.55;;
52872;Laerm;40124;52.198;9.902;2023-11-19T00:58:16;62.88;39.92;78.81;;
52872;Laerm;40124;52.198;9.902;2023-11-19T01:00:43;42.48;39.46;44.27;;
52872;Laerm;40124;52.198;9.902;2023-11-19T01:03:08;55.81;37.70;76.68;;
52872;Laerm;40124;52.198;9.902;2023-11-19T01:05:33;63.74;40.13;80.21;;
52872;Laerm;40124;52.198;9.902;2023-11-19T01:07:58;63.90;39.21;80.56;;
52872;Laerm;40124;52.198;9.902;2023-11-19T01:10:23;43.35;39.92;54.43;;
52872;Laerm;40124;52.198;9.902;2023-11-19T01:12:49;65.37;40.43;80.46;;
52872;Laerm;40124;52.198;9.902;2023-11-19T01:15:14;64.82;40.62;80.59;;
52872;Laerm;40124;52.198;9.902;2023-11-19T01:17:40;63.77;38.81;81.48;;
52872;Laerm;40124;52.198;9.902;2023-11-19T01:20:05;60.35;38.67;77.42;;
52872;Laerm;40124;52.198;9.902;2023-11-19T01:22:37;52.19;38.67;64.87;;
52872;Laerm;40124;52.198;9.902;2023-11-19T01:25:02;62.98;40.13;78.50;;
52872;Laerm;40124;52.198;9.902;2023-11-19T01:27:27;63.20;40.13;79.24;;
52872;Laerm;40124;52.198;9.902;2023-11-19T01:29:53;59.02;41.30;77.13;;
52872;Laerm;40124;52.198;9.902;2023-11-19T01:32:18;62.23;39.58;78.71;;
52872;Laerm;40124;52.198;9.902;2023-11-19T01:34:43;42.09;38.95;53.04;;
52872;Laerm;40124;52.198;9.902;2023-11-19T01:37:09;65.00;37.70;82.20;;
52872;Laerm;40124;52.198;9.902;2023-11-19T01:39:35;42.27;38.37;55.75;;
52872;Laerm;40124;52.198;9.902;2023-11-19T01:42:00;61.84;38.67;83.40;;
52872;Laerm;40124;52.198;9.902;2023-11-19T01:44:25;41.49;38.21;44.80;;
52872;Laerm;40124;52.198;9.902;2023-11-19T01:46:50;60.27;38.81;79.86;;
52872;Laerm;40124;52.198;9.902;2023-11-19T01:49:17;65.81;41.06;83.65;;
52872;Laerm;40124;52.198;9.902;2023-11-19T01:51:42;43.00;40.80;52.56;;
52872;Laerm;40124;52.198;9.902;2023-11-19T01:54:08;57.76;40.03;78.85;;
52872;Laerm;40124;52.198;9.902;2023-11-19T01:56:34;42.64;39.92;52.51;;
52872;Laerm;40124;52.198;9.902;2023-11-19T01:58:59;60.74;39.46;82.25;;
52872;Laerm;40124;52.198;9.902;2023-11-19T02:01:25;60.31;38.67;81.09;;
52872;Laerm;40124;52.198;9.902;2023-11-19T02:03:51;57.98;38.52;78.51;;
52872;Laerm;40124;52.198;9.902;2023-11-19T02:06:16;66.72;39.81;81.52;;
52872;Laerm;40124;52.198;9.902;2023-11-19T02:08:42;62.18;39.08;80.12;;
52872;Laerm;40124;52.198;9.902;2023-11-19T02:11:08;42.26;38.52;54.12;;
52872;Laerm;40124;52.198;9.902;2023-11-19T02:13:33;42.91;39.34;63.09;;
52872;Laerm;40124;52.198;9.902;2023-11-19T02:16:01;58.29;40.98;78.77;;
52872;Laerm;40124;52.198;9.902;2023-11-19T02:18:27;58.50;41.96;77.22;;
52872;Laerm;40124;52.198;9.902;2023-11-19T02:20:53;64.77;43.49;81.60;;
52872;Laerm;40124;52.198;9.902;2023-11-19T02:23:19;50.59;44.80;66.63;;
52872;Laerm;40124;52.198;9.902;2023-11-19T02:26:31;59.52;44.47;79.42;;
52872;Laerm;40124;52.198;9.902;2023-11-19T02:28:31;60.10;41.75;80.74;;
52872;Laerm;40124;52.198;9.902;2023-11-19T02:30:57;57.58;40.03;78.16;;
52872;Laerm;40124;52.198;9.902;2023-11-19T02:33:22;42.41;39.46;48.95;;
52872;Laerm;40124;52.198;9.902;2023-11-19T02:35:48;42.22;39.08;55.59;;
52872;Laerm;40124;52.198;9.902;2023-11-19T02:38:13;41.73;38.52;52.36;;
52872;Laerm;40124;52.198;9.902;2023-11-19T02:40:39;44.10;40.13;57.70;;
52872;Laerm;40124;52.198;9.902;2023-11-19T02:43:04;43.83;40.33;56.35;;
52872;Laerm;40124;52.198;9.902;2023-11-19T02:45:30;62.23;41.41;80.58;;
52872;Laerm;40124;52.198;9.902;2023-11-19T02:47:56;43.55;40.33;50.35;;
52872;Laerm;40124;52.198;9.902;2023-11-19T02:50:21;42.39;39.34;47.12;;
52872;Laerm;40124;52.198;9.902;2023-11-19T02:52:53;42.39;39.21;51.75;;
52872;Laerm;40124;52.198;9.902;2023-11-19T02:55:19;63.24;39.70;82.53;;
52872;Laerm;40124;52.198;9.902;2023-11-19T02:57:44;42.60;39.81;48.45;;
52872;Laerm;40124;52.198;9.902;2023-11-19T03:00:16;61.22;39.34;80.11;;
52872;Laerm;40124;52.198;9.902;2023-11-19T03:02:42;43.72;41.06;51.77;;
52872;Laerm;40124;52.198;9.902;2023-11-19T03:05:12;44.43;41.38;53.69;;
52872;Laerm;40124;52.198;9.902;2023-11-19T03:07:37;60.70;40.89;79.71;;
52872;Laerm;40124;52.198;9.902;2023-11-19T03:10:02;44.11;39.70;54.85;;
52872;Laerm;40124;52.198;9.902;2023-11-19T03:12:30;62.60;40.13;82.48;;
52872;Laerm;40124;52.198;9.902;2023-11-19T03:14:55;43.79;39.58;51.50;;
52872;Laerm;40124;52.198;9.902;2023-11-19T03:17:20;43.50;39.46;50.51;;
52872;Laerm;40124;52.198;9.902;2023-11-19T03:19:46;43.43;40.53;55.76;;
52872;Laerm;40124;52.198;9.902;2023-11-19T03:22:11;43.70;40.80;52.78;;
52872;Laerm;40124;52.198;9.902;2023-11-19T03:24:36;62.71;40.03;84.91;;
52872;Laerm;40124;52.198;9.902;2023-11-19T03:27:01;43.35;40.23;51.17;;
52872;Laerm;40124;52.198;9.902;2023-11-19T03:29:26;61.44;40.80;81.27;;
52872;Laerm;40124;52.198;9.902;2023-11-19T03:31:53;59.97;41.89;79.10;;
52872;Laerm;40124;52.198;9.902;2023-11-19T03:34:18;59.77;40.62;81.06;;
52872;Laerm;40124;52.198;9.902;2023-11-19T03:36:43;42.37;38.37;49.36;;
52872;Laerm;40124;52.198;9.902;2023-11-19T03:39:09;49.27;40.43;62.35;;
52872;Laerm;40124;52.198;9.902;2023-11-19T03:41:34;62.91;41.06;80.31;;
52872;Laerm;40124;52.198;9.902;2023-11-19T03:43:59;62.72;39.81;82.38;;
52872;Laerm;40124;52.198;9.902;2023-11-19T03:46:24;58.14;40.33;79.59;;
52872;Laerm;40124;52.198;9.902;2023-11-19T03:48:49;42.19;38.37;44.65;;
52872;Laerm;40124;52.198;9.902;2023-11-19T03:51:15;41.94;38.81;45.94;;
52872;Laerm;40124;52.198;9.902;2023-11-19T03:53:44;42.62;39.58;49.14;;
52872;Laerm;40124;52.198;9.902;2023-11-19T03:56:09;41.83;37.52;49.43;;
52872;Laerm;40124;52.198;9.902;2023-11-19T03:58:35;42.04;38.67;50.19;;
52872;Laerm;40124;52.198;9.902;2023-11-19T04:01:00;67.31;38.21;86.85;;
52872;Laerm;40124;52.198;9.902;2023-11-19T04:03:26;54.81;41.30;73.62;;
52872;Laerm;40124;52.198;9.902;2023-11-19T04:05:51;43.76;41.75;45.30;;
52872;Laerm;40124;52.198;9.902;2023-11-19T04:08:16;44.01;41.82;59.82;;
52872;Laerm;40124;52.198;9.902;2023-11-19T04:10:41;57.82;41.68;77.70;;
52872;Laerm;40124;52.198;9.902;2023-11-19T04:13:06;59.09;41.82;79.85;;
52872;Laerm;40124;52.198;9.902;2023-11-19T04:15:31;43.43;41.06;48.25;;
52872;Laerm;40124;52.198;9.902;2023-11-19T04:17:57;56.44;41.82;76.39;;
52872;Laerm;40124;52.198;9.902;2023-11-19T04:20:22;43.15;40.13;47.10;;
52872;Laerm;40124;52.198;9.902;2023-11-19T04:22:47;58.65;40.03;80.18;;
52872;Laerm;40124;52.198;9.902;2023-11-19T04:25:12;42.11;37.32;45.17;;
52872;Laerm;40124;52.198;9.902;2023-11-19T04:27:38;59.60;38.05;80.46;;
52872;Laerm;40124;52.198;9.902;2023-11-19T04:30:04;59.33;38.21;78.12;;
52872;Laerm;40124;52.198;9.902;2023-11-19T04:32:30;58.11;39.08;76.21;;
52872;Laerm;40124;52.198;9.902;2023-11-19T04:34:55;43.95;39.46;60.05;;
52872;Laerm;40124;52.198;9.902;2023-11-19T04:37:20;57.41;38.81;77.49;;
52872;Laerm;40124;52.198;9.902;2023-11-19T04:39:46;57.67;39.34;78.17;;
52872;Laerm;40124;52.198;9.902;2023-11-19T04:42:11;59.83;38.52;80.34;;
52872;Laerm;40124;52.198;9.902;2023-11-19T04:44:36;42.24;37.88;56.13;;
52872;Laerm;40124;52.198;9.902;2023-11-19T04:47:01;62.41;37.32;81.58;;
52872;Laerm;40124;52.198;9.902;2023-11-19T04:49:26;58.53;38.05;78.10;;
52872;Laerm;40124;52.198;9.902;2023-11-19T04:51:52;62.69;38.05;80.60;;
52872;Laerm;40124;52.198;9.902;2023-11-19T04:54:17;59.54;39.08;78.80;;
52872;Laerm;40124;52.198;9.902;2023-11-19T04:56:46;41.85;38.67;47.90;;
52872;Laerm;40124;52.198;9.902;2023-11-19T04:59:12;62.26;39.81;80.56;;
52872;Laerm;40124;52.198;9.902;2023-11-19T05:01:37;54.63;37.88;73.61;;
52872;Laerm;40124;52.198;9.902;2023-11-19T05:04:02;61.69;38.05;77.29;;
52872;Laerm;40124;52.198;9.902;2023-11-19T05:06:28;57.37;38.67;77.63;;
52872;Laerm;40124;52.198;9.902;2023-11-19T05:08:54;58.91;38.52;79.37;;
52872;Laerm;40124;52.198;9.902;2023-11-19T05:11:19;61.68;39.21;81.11;;
52872;Laerm;40124;52.198;9.902;2023-11-19T05:13:45;57.32;38.05;77.74;;
52872;Laerm;40124;52.198;9.902;2023-11-19T05:16:10;59.58;39.58;81.11;;
52872;Laerm;40124;52.198;9.902;2023-11-19T05:18:35;64.05;38.81;82.04;;
52872;Laerm;40124;52.198;9.902;2023-11-19T05:21:00;66.46;38.81;85.57;;
52872;Laerm;40124;52.198;9.902;2023-11-19T05:23:26;62.77;40.62;83.07;;
52872;Laerm;40124;52.198;9.902;2023-11-19T05:25:51;42.77;39.70;46.66;;
52872;Laerm;40124;52.198;9.902;2023-11-19T05:28:16;56.45;40.23;76.04;;
52872;Laerm;40124;52.198;9.902;2023-11-19T05:30:41;42.45;39.70;46.28;;
52872;Laerm;40124;52.198;9.902;2023-11-19T05:33:06;56.04;39.70;76.39;;
52872;Laerm;40124;52.198;9.902;2023-11-19T05:35:33;42.43;39.08;46.84;;
52872;Laerm;40124;52.198;9.902;2023-11-19T05:37:59;59.01;39.70;79.32;;
52872;Laerm;40124;52.198;9.902;2023-11-19T05:40:24;69.37;40.33;86.21;;
52872;Laerm;40124;52.198;9.902;2023-11-19T05:42:49;58.49;38.05;78.46;;
52872;Laerm;40124;52.198;9.902;2023-11-19T05:45:14;56.67;38.05;74.28;;
52872;Laerm;40124;52.198;9.902;2023-11-19T05:47:40;41.40;37.70;46.76;;
52872;Laerm;40124;52.198;9.902;2023-11-19T05:50:05;54.56;38.52;73.67;;
52872;Laerm;40124;52.198;9.902;2023-11-19T05:52:31;41.53;38.21;56.62;;
52872;Laerm;40124;52.198;9.902;2023-11-19T05:54:59;42.02;38.67;53.07;;
52872;Laerm;40124;52.198;9.902;2023-11-19T05:57:27;54.89;38.52;75.32;;
52872;Laerm;40124;52.198;9.902;2023-11-19T05:59:54;63.76;40.33;82.37;;
52872;Laerm;40124;52.198;9.902;2023-11-19T06:02:19;61.87;38.81;80.37;;
52872;Laerm;40124;52.198;9.902;2023-11-19T06:04:44;61.80;39.92;78.77;;
52872;Laerm;40124;52.198;9.902;2023-11-19T06:07:12;62.60;38.52;83.55;;
52872;Laerm;40124;52.198;9.902;2023-11-19T06:09:37;58.42;37.88;76.89;;
52872;Laerm;40124;52.198;9.902;2023-11-19T06:12:03;42.52;37.32;60.90;;
52872;Laerm;40124;52.198;9.902;2023-11-19T06:14:29;64.71;39.34;81.46;;
52872;Laerm;40124;52.198;9.902;2023-11-19T06:16:54;60.86;40.33;78.18;;
52872;Laerm;40124;52.198;9.902;2023-11-19T06:19:19;59.77;40.89;80.39;;
52872;Laerm;40124;52.198;9.902;2023-11-19T06:21:44;60.55;38.67;81.60;;
52872;Laerm;40124;52.198;9.902;2023-11-19T06:24:09;65.77;39.92;85.64;;
52872;Laerm;40124;52.198;9.902;2023-11-19T06:26:35;59.02;38.95;76.60;;
52872;Laerm;40124;52.198;9.902;2023-11-19T06:29:00;56.67;38.95;76.49;;
52872;Laerm;40124;52.198;9.902;2023-11-19T06:31:25;63.11;40.62;82.71;;
52872;Laerm;40124;52.198;9.902;2023-11-19T06:33:50;60.29;42.22;78.48;;
52872;Laerm;40124;52.198;9.902;2023-11-19T06:36:15;58.38;42.22;76.31;;
52872;Laerm;40124;52.198;9.902;2023-11-19T06:38:43;44.14;41.96;61.65;;
52872;Laerm;40124;52.198;9.902;2023-11-19T06:41:09;59.42;42.03;79.49;;
52872;Laerm;40124;52.198;9.902;2023-11-19T06:43:34;60.01;40.98;76.03;;
52872;Laerm;40124;52.198;9.902;2023-11-19T06:45:59;62.87;40.23;81.28;;
52872;Laerm;40124;52.198;9.902;2023-11-19T06:48:25;60.30;41.14;79.52;;
52872;Laerm;40124;52.198;9.902;2023-11-19T06:50:50;66.51;41.61;85.04;;
52872;Laerm;40124;52.198;9.902;2023-11-19T06:53:15;65.89;42.22;80.04;;
52872;Laerm;40124;52.198;9.902;2023-11-19T06:55:40;60.00;40.71;80.11;;
52872;Laerm;40124;52.198;9.902;2023-11-19T06:58:05;64.26;41.46;80.91;;
52872;Laerm;40124;52.198;9.902;2023-11-19T07:00:31;62.43;41.38;79.51;;
52872;Laerm;40124;52.198;9.902;2023-11-19T07:02:57;63.28;40.80;82.30;;
52872;Laerm;40124;52.198;9.902;2023-11-19T07:05:23;61.70;40.89;80.96;;
52872;Laerm;40124;52.198;9.902;2023-11-19T07:07:48;61.65;40.71;79.38;;
52872;Laerm;40124;52.198;9.902;2023-11-19T07:10:14;62.01;41.38;77.71;;
52872;Laerm;40124;52.198;9.902;2023-11-19T07:12:39;68.54;42.71;83.21;;
52872;Laerm;40124;52.198;9.902;2023-11-19T07:15:04;55.26;41.30;73.65;;
52872;Laerm;40124;52.198;9.902;2023-11-19T07:17:30;62.54;41.46;77.59;;
52872;Laerm;40124;52.198;9.902;2023-11-19T07:19:55;64.15;43.29;79.76;;
52872;Laerm;40124;52.198;9.902;2023-11-19T07:22:25;62.54;40.03;78.68;;
52872;Laerm;40124;52.198;9.902;2023-11-19T07:24:50;62.99;41.14;79.07;;
52872;Laerm;40124;52.198;9.902;2023-11-19T07:27:16;62.73;39.70;81.14;;
52872;Laerm;40124;52.198;9.902;2023-11-19T07:29:43;64.19;42.53;79.04;;
52872;Laerm;40124;52.198;9.902;2023-11-19T07:32:08;65.53;40.89;81.03;;
52872;Laerm;40124;52.198;9.902;2023-11-19T07:34:33;62.88;42.03;78.98;;
52872;Laerm;40124;52.198;9.902;2023-11-19T07:36:59;62.27;42.09;78.27;;
52872;Laerm;40124;52.198;9.902;2023-11-19T07:39:27;64.44;41.38;83.00;;
52872;Laerm;40124;52.198;9.902;2023-11-19T07:41:52;67.47;42.22;80.49;;
52872;Laerm;40124;52.198;9.902;2023-11-19T07:44:17;66.73;39.68;81.12;;
52872;Laerm;40124;52.198;9.902;2023-11-19T07:46:43;67.72;42.71;80.52;;
52872;Laerm;40124;52.198;9.902;2023-11-19T07:49:09;67.05;41.53;81.75;;
52872;Laerm;40124;52.198;9.902;2023-11-19T07:51:35;60.43;40.13;79.82;;
52872;Laerm;40124;52.198;9.902;2023-11-19T07:54:01;68.76;42.03;81.03;;
52872;Laerm;40124;52.198;9.902;2023-11-19T07:56:26;64.99;41.11;79.41;;
52872;Laerm;40124;52.198;9.902;2023-11-19T07:58:51;68.09;40.03;81.41;;
52872;Laerm;40124;52.198;9.902;2023-11-19T08:01:17;66.50;40.62;82.63;;
52872;Laerm;40124;52.198;9.902;2023-11-19T08:03:42;66.26;40.71;82.75;;
52872;Laerm;40124;52.198;9.902;2023-11-19T08:06:07;65.65;42.29;79.92;;
52872;Laerm;40124;52.198;9.902;2023-11-19T08:08:32;66.43;41.53;81.44;;
52872;Laerm;40124;52.198;9.902;2023-11-19T08:10:59;63.29;40.89;78.03;;
52872;Laerm;40124;52.198;9.902;2023-11-19T08:13:24;67.77;42.71;84.37;;
52872;Laerm;40124;52.198;9.902;2023-11-19T08:15:50;65.53;42.59;79.14;;
52872;Laerm;40124;52.198;9.902;2023-11-19T08:18:15;69.86;44.43;82.29;;
52872;Laerm;40124;52.198;9.902;2023-11-19T08:20:41;63.90;41.61;79.45;;
52872;Laerm;40124;52.198;9.902;2023-11-19T08:23:07;68.35;41.46;82.34;;
52872;Laerm;40124;52.198;9.902;2023-11-19T08:25:33;67.42;43.04;81.98;;
52872;Laerm;40124;52.198;9.902;2023-11-19T08:27:58;67.36;42.71;81.31;;
52872;Laerm;40124;52.198;9.902;2023-11-19T08:30:24;68.45;43.44;81.76;;
52872;Laerm;40124;52.198;9.902;2023-11-19T08:32:49;67.69;41.30;83.60;;
52872;Laerm;40124;52.198;9.902;2023-11-19T08:35:14;66.00;41.38;80.97;;
52872;Laerm;40124;52.198;9.902;2023-11-19T08:37:41;69.20;41.38;81.37;;
52872;Laerm;40124;52.198;9.902;2023-11-19T08:40:07;67.39;40.89;82.50;;
52872;Laerm;40124;52.198;9.902;2023-11-19T08:42:32;67.39;40.89;82.64;;
52872;Laerm;40124;52.198;9.902;2023-11-19T08:44:57;67.02;41.53;80.67;;
52872;Laerm;40124;52.198;9.902;2023-11-19T08:47:23;70.30;42.35;87.25;;
52872;Laerm;40124;52.198;9.902;2023-11-19T08:49:50;69.71;42.98;80.72;;
52872;Laerm;40124;52.198;9.902;2023-11-19T08:52:15;69.47;42.36;83.24;;
52872;Laerm;40124;52.198;9.902;2023-11-19T08:54:42;67.39;42.09;80.98;;
52872;Laerm;40124;52.198;9.902;2023-11-19T08:57:07;66.91;41.30;82.38;;
52872;Laerm;40124;52.198;9.902;2023-11-19T08:59:33;67.27;43.19;79.55;;
52872;Laerm;40124;52.198;9.902;2023-11-19T09:01:59;69.60;45.17;82.42;;
52872;Laerm;40124;52.198;9.902;2023-11-19T09:04:24;68.08;41.53;82.03;;
52872;Laerm;40124;52.198;9.902;2023-11-19T09:06:49;67.77;40.71;84.31;;
52872;Laerm;40124;52.198;9.902;2023-11-19T09:09:14;67.99;43.14;82.52;;
52872;Laerm;40124;52.198;9.902;2023-11-19T09:11:40;69.15;43.44;80.15;;
52872;Laerm;40124;52.198;9.902;2023-11-19T09:14:05;68.54;42.03;81.12;;
52872;Laerm;40124;52.198;9.902;2023-11-19T09:16:30;67.48;43.68;81.40;;
52872;Laerm;40124;52.198;9.902;2023-11-19T09:18:55;69.24;42.09;85.43;;
52872;Laerm;40124;52.198;9.902;2023-11-19T09:21:21;69.40;43.14;81.09;;
52872;Laerm;40124;52.198;9.902;2023-11-19T09:23:47;67.17;44.35;81.63;;
52872;Laerm;40124;52.198;9.902;2023-11-19T09:26:14;69.93;44.76;81.20;;
52872;Laerm;40124;52.198;9.902;2023-11-19T09:28:39;69.46;44.65;83.67;;
52872;Laerm;40124;52.198;9.902;2023-11-19T09:31:12;70.56;43.90;81.91;;
52872;Laerm;40124;52.198;9.902;2023-11-19T09:33:37;70.29;42.76;83.54;;
52872;Laerm;40124;52.198;9.902;2023-11-19T09:36:03;69.34;45.20;82.12;;
52872;Laerm;40124;52.198;9.902;2023-11-19T09:38:28;68.25;43.54;82.15;;
52872;Laerm;40124;52.198;9.902;2023-11-19T09:40:53;67.82;44.07;80.84;;
52872;Laerm;40124;52.198;9.902;2023-11-19T09:43:18;66.31;43.99;80.50;;
52872;Laerm;40124;52.198;9.902;2023-11-19T09:48:12;68.35;40.89;82.71;;
52872;Laerm;40124;52.198;9.902;2023-11-19T09:50:37;69.47;42.35;83.23;;
52872;Laerm;40124;52.198;9.902;2023-11-19T09:53:02;69.87;43.09;86.99;;
52872;Laerm;40124;52.198;9.902;2023-11-19T09:55:28;69.09;44.03;82.01;;
52872;Laerm;40124;52.198;9.902;2023-11-19T09:57:53;70.55;43.39;82.44;;
52872;Laerm;40124;52.198;9.902;2023-11-19T10:00:18;66.21;42.29;79.65;;
52872;Laerm;40124;52.198;9.902;2023-11-19T10:02:45;68.38;42.29;79.99;;
52872;Laerm;40124;52.198;9.902;2023-11-19T10:05:11;67.52;42.09;80.01;;
52872;Laerm;40124;52.198;9.902;2023-11-19T10:07:37;65.93;41.22;78.73;;
52872;Laerm;40124;52.198;9.902;2023-11-19T10:10:03;69.04;41.68;80.52;;
52872;Laerm;40124;52.198;9.902;2023-11-19T10:12:32;67.15;42.29;82.37;;
52872;Laerm;40124;52.198;9.902;2023-11-19T10:14:58;69.74;44.03;80.79;;
52872;Laerm;40124;52.198;9.902;2023-11-19T10:17:27;67.78;43.94;81.09;;
52872;Laerm;40124;52.198;9.902;2023-11-19T10:19:54;68.20;44.62;82.30;;
52872;Laerm;40124;52.198;9.902;2023-11-19T10:22:19;67.13;42.03;80.54;;
52872;Laerm;40124;52.198;9.902;2023-11-19T10:24:44;69.24;41.82;82.67;;
52872;Laerm;40124;52.198;9.902;2023-11-19T10:27:09;67.47;43.09;82.10;;
52872;Laerm;40124;52.198;9.902;2023-11-19T10:29:37;67.32;41.22;80.87;;
52872;Laerm;40124;52.198;9.902;2023-11-19T10:32:03;67.79;42.71;80.93;;
52872;Laerm;40124;52.198;9.902;2023-11-19T10:34:28;62.36;42.93;79.12;;
52872;Laerm;40124;52.198;9.902;2023-11-19T10:36:54;69.79;42.59;82.54;;
52872;Laerm;40124;52.198;9.902;2023-11-19T10:39:20;68.43;43.54;80.74;;
52872;Laerm;40124;52.198;9.902;2023-11-19T10:41:46;71.10;45.97;82.48;;
52872;Laerm;40124;52.198;9.902;2023-11-19T10:44:11;67.08;44.90;79.47;;
52872;Laerm;40124;52.198;9.902;2023-11-19T10:46:38;67.93;40.13;82.22;;
52872;Laerm;40124;52.198;9.902;2023-11-19T10:49:04;67.51;41.94;81.46;;
52872;Laerm;40124;52.198;9.902;2023-11-19T10:51:31;71.09;41.06;86.63;;
52872;Laerm;40124;52.198;9.902;2023-11-19T10:53:57;68.23;41.22;83.73;;
52872;Laerm;40124;52.198;9.902;2023-11-19T10:56:26;65.01;40.62;78.73;;
52872;Laerm;40124;52.198;9.902;2023-11-19T10:58:55;69.18;42.82;82.27;;
52872;Laerm;40124;52.198;9.902;2023-11-19T11:01:24;65.31;41.89;80.57;;
52872;Laerm;40124;52.198;9.902;2023-11-19T11:03:51;68.68;42.58;83.08;;
52872;Laerm;40124;52.198;9.902;2023-11-19T11:06:19;66.77;43.29;81.75;;
52872;Laerm;40124;52.198;9.902;2023-11-19T11:08:44;65.97;41.06;80.13;;
52872;Laerm;40124;52.198;9.902;2023-11-19T11:11:11;68.42;43.44;80.38;;
52872;Laerm;40124;52.198;9.902;2023-11-19T11:13:38;67.75;42.76;80.72;;
52872;Laerm;40124;52.198;9.902;2023-11-19T11:16:04;70.01;41.22;82.63;;
52872;Laerm;40124;52.198;9.902;2023-11-19T11:18:31;68.43;42.98;81.31;;
52872;Laerm;40124;52.198;9.902;2023-11-19T11:20:58;68.85;42.98;82.61;;
52872;Laerm;40124;52.198;9.902;2023-11-19T11:33:56;70.08;43.58;86.45;;
52872;Laerm;40124;52.198;9.902;2023-11-19T11:36:26;71.06;44.11;82.79;;
52872;Laerm;40124;52.198;9.902;2023-11-19T11:38:52;68.31;42.09;80.64;;
52872;Laerm;40124;52.198;9.902;2023-11-19T11:41:21;67.31;43.14;81.24;;
52872;Laerm;40124;52.198;9.902;2023-11-19T11:43:54;67.94;42.47;82.30;;
52872;Laerm;40124;52.198;9.902;2023-11-19T11:49:03;68.96;44.19;80.80;;
52872;Laerm;40124;52.198;9.902;2023-11-19T11:54:09;67.35;42.09;79.87;;
52872;Laerm;40124;52.198;9.902;2023-11-19T11:56:37;68.75;42.22;81.92;;
52872;Laerm;40124;52.198;9.902;2023-11-19T11:59:03;65.78;41.38;80.11;;
52872;Laerm;40124;52.198;9.902;2023-11-19T12:01:28;66.67;43.34;80.30;;
52872;Laerm;40124;52.198;9.902;2023-11-19T12:03:55;70.61;46.10;84.11;;
52872;Laerm;40124;52.198;9.902;2023-11-19T12:06:21;69.70;47.46;83.49;;
52872;Laerm;40124;52.198;9.902;2023-11-19T12:08:46;68.91;44.76;80.58;;
52872;Laerm;40124;52.198;9.902;2023-11-19T12:11:11;68.28;42.98;82.09;;
52872;Laerm;40124;52.198;9.902;2023-11-19T12:13:53;69.21;43.54;80.98;;
52872;Laerm;40124;52.198;9.902;2023-11-19T12:16:21;70.75;42.65;80.77;;
52872;Laerm;40124;52.198;9.902;2023-11-19T12:18:46;70.14;42.76;85.20;;
52872;Laerm;40124;52.198;9.902;2023-11-19T12:21:12;66.70;41.30;82.17;;
52872;Laerm;40124;52.198;9.902;2023-11-19T12:23:52;69.09;42.88;80.26;;
52872;Laerm;40124;52.198;9.902;2023-11-19T12:26:30;68.56;42.93;82.97;;
52872;Laerm;40124;52.198;9.902;2023-11-19T12:28:59;69.16;42.65;80.93;;
52872;Laerm;40124;52.198;9.902;2023-11-19T12:31:25;69.41;44.07;80.01;;
52872;Laerm;40124;52.198;9.902;2023-11-19T12:33:50;68.90;42.47;81.50;;
52872;Laerm;40124;52.198;9.902;2023-11-19T12:36:16;69.65;43.94;80.86;;
52872;Laerm;40124;52.198;9.902;2023-11-19T12:38:41;67.82;40.89;79.63;;
52872;Laerm;40124;52.198;9.902;2023-11-19T12:41:06;69.67;47.57;82.61;;
52872;Laerm;40124;52.198;9.902;2023-11-19T12:43:32;68.49;42.59;80.35;;
52872;Laerm;40124;52.198;9.902;2023-11-19T12:45:59;65.38;40.62;83.16;;
52872;Laerm;40124;52.198;9.902;2023-11-19T12:48:24;68.83;40.71;80.97;;
52872;Laerm;40124;52.198;9.902;2023-11-19T12:50:50;70.44;42.76;82.05;;
52872;Laerm;40124;52.198;9.902;2023-11-19T12:53:15;69.23;43.24;82.93;;
52872;Laerm;40124;52.198;9.902;2023-11-19T12:55:40;67.52;43.60;80.39;;
52872;Laerm;40124;52.198;9.902;2023-11-19T12:58:05;68.72;45.36;78.64;;
52872;Laerm;40124;52.198;9.902;2023-11-19T13:00:31;67.63;42.59;84.22;;
52872;Laerm;40124;52.198;9.902;2023-11-19T13:02:56;70.29;42.47;83.22;;
52872;Laerm;40124;52.198;9.902;2023-11-19T13:05:34;69.38;45.62;86.38;;
52872;Laerm;40124;52.198;9.902;2023-11-19T13:08:02;66.94;43.34;83.40;;
52872;Laerm;40124;52.198;9.902;2023-11-19T13:10:28;68.08;45.14;82.41;;
52872;Laerm;40124;52.198;9.902;2023-11-19T13:13:14;68.31;42.22;82.66;;
52872;Laerm;40124;52.198;9.902;2023-11-19T13:15:39;66.46;41.53;80.24;;
52872;Laerm;40124;52.198;9.902;2023-11-19T13:18:05;68.64;43.77;79.71;;
52872;Laerm;40124;52.198;9.902;2023-11-19T13:20:31;68.56;43.58;82.62;;
52872;Laerm;40124;52.198;9.902;2023-11-19T13:23:01;70.85;48.34;81.85;;
52872;Laerm;40124;52.198;9.902;2023-11-19T13:25:27;71.28;50.63;82.52;;
52872;Laerm;40124;52.198;9.902;2023-11-19T13:27:52;67.80;44.73;79.52;;
52872;Laerm;40124;52.198;9.902;2023-11-19T13:30:18;70.15;48.35;82.03;;
52872;Laerm;40124;52.198;9.902;2023-11-19T13:32:43;70.38;46.18;82.42;;
52872;Laerm;40124;52.198;9.902;2023-11-19T13:35:10;68.45;46.20;80.93;;
52872;Laerm;40124;52.198;9.902;2023-11-19T13:37:36;69.10;43.72;79.42;;
52872;Laerm;40124;52.198;9.902;2023-11-19T13:40:01;70.14;44.43;87.51;;
52872;Laerm;40124;52.198;9.902;2023-11-19T13:42:26;69.28;43.99;80.84;;
52872;Laerm;40124;52.198;9.902;2023-11-19T13:44:52;66.96;43.19;79.29;;
52872;Laerm;40124;52.198;9.902;2023-11-19T13:47:17;69.25;46.02;80.70;;
52872;Laerm;40124;52.198;9.902;2023-11-19T13:49:44;68.48;44.03;80.14;;
52872;Laerm;40124;52.198;9.902;2023-11-19T13:52:09;72.63;44.03;88.80;;
52872;Laerm;40124;52.198;9.902;2023-11-19T13:54:34;66.20;43.19;79.27;;